sensor_id;sensor_type;location;lat;lon;timestamp;P1;durP1;ratioP1;P2;durP2;ratioP2
21091;SDS011;10704;42.678;23.288;2023-04-12T00:01:35;15.13;;;9.82;;
21091;SDS011;10704;42.678;23.288;2023-04-12T00:04:01;16.35;;;10.43;;
21091;SDS011;10704;42.678;23.288;2023-04-12T00:06:29;18.58;;;11.50;;
21091;SDS011;10704;42.678;23.288;2023-04-12T00:08:59;16.15;;;9.68;;
21091;SDS011;10704;42.678;23.288;2023-04-12T00:11:26;16.50;;;10.85;;
21091;SDS011;10704;42.678;23.288;2023-04-12T00:13:53;18.20;;;10.57;;
21091;SDS011;10704;42.678;23.288;2023-04-12T00:16:19;21.35;;;11.45;;
21091;SDS011;10704;42.678;23.288;2023-04-12T00:18:45;18.98;;;10.48;;
21091;SDS011;10704;42.678;23.288;2023-04-12T00:21:11;18.23;;;10.95;;
21091;SDS011;10704;42.678;23.288;2023-04-12T00:23:37;17.75;;;10.77;;
21091;SDS011;10704;42.678;23.288;2023-04-12T00:26:03;18.98;;;10.80;;
21091;SDS011;10704;42.678;23.288;2023-04-12T00:28:29;18.33;;;11.27;;
21091;SDS011;10704;42.678;23.288;2023-04-12T00:30:55;19.38;;;10.98;;
21091;SDS011;10704;42.678;23.288;2023-04-12T00:33:21;17.02;;;9.98;;
21091;SDS011;10704;42.678;23.288;2023-04-12T00:35:47;15.98;;;10.68;;
21091;SDS011;10704;42.678;23.288;2023-04-12T00:38:13;15.52;;;10.35;;
21091;SDS011;10704;42.678;23.288;2023-04-12T00:40:41;20.92;;;10.82;;
21091;SDS011;10704;42.678;23.288;2023-04-12T00:43:08;18.85;;;10.80;;
21091;SDS011;10704;42.678;23.288;2023-04-12T00:45:40;17.17;;;11.10;;
21091;SDS011;10704;42.678;23.288;2023-04-12T00:48:08;16.23;;;10.68;;
21091;SDS011;10704;42.678;23.288;2023-04-12T00:50:34;17.55;;;10.18;;
21091;SDS011;10704;42.678;23.288;2023-04-12T00:53:01;20.63;;;11.00;;
21091;SDS011;10704;42.678;23.288;2023-04-12T00:55:28;17.77;;;10.82;;
21091;SDS011;10704;42.678;23.288;2023-04-12T00:57:55;20.10;;;10.90;;
21091;SDS011;10704;42.678;23.288;2023-04-12T01:00:21;18.65;;;11.55;;
21091;SDS011;10704;42.678;23.288;2023-04-12T01:02:47;17.70;;;10.65;;
21091;SDS011;10704;42.678;23.288;2023-04-12T01:05:15;17.35;;;10.70;;
21091;SDS011;10704;42.678;23.288;2023-04-12T01:08:03;16.23;;;10.13;;
21091;SDS011;10704;42.678;23.288;2023-04-12T01:10:44;17.30;;;11.10;;
21091;SDS011;10704;42.678;23.288;2023-04-12T01:13:35;19.02;;;10.80;;
21091;SDS011;10704;42.678;23.288;2023-04-12T01:16:08;16.80;;;10.07;;
21091;SDS011;10704;42.678;23.288;2023-04-12T01:18:41;17.10;;;10.57;;
21091;SDS011;10704;42.678;23.288;2023-04-12T01:21:20;19.90;;;10.50;;
21091;SDS011;10704;42.678;23.288;2023-04-12T01:26:46;18.65;;;11.32;;
21091;SDS011;10704;42.678;23.288;2023-04-12T01:29:14;19.95;;;11.40;;
21091;SDS011;10704;42.678;23.288;2023-04-12T01:31:48;20.00;;;10.80;;
21091;SDS011;10704;42.678;23.288;2023-04-12T01:34:21;18.80;;;10.52;;
21091;SDS011;10704;42.678;23.288;2023-04-12T01:36:49;16.85;;;11.13;;
21091;SDS011;10704;42.678;23.288;2023-04-12T01:39:17;17.35;;;10.65;;
21091;SDS011;10704;42.678;23.288;2023-04-12T01:41:43;16.02;;;10.93;;
21091;SDS011;10704;42.678;23.288;2023-04-12T01:44:16;19.38;;;11.30;;
21091;SDS011;10704;42.678;23.288;2023-04-12T01:46:44;18.20;;;11.40;;
21091;SDS011;10704;42.678;23.288;2023-04-12T01:49:13;18.08;;;11.10;;
21091;SDS011;10704;42.678;23.288;2023-04-12T01:51:51;18.23;;;11.32;;
21091;SDS011;10704;42.678;23.288;2023-04-12T01:54:26;18.02;;;10.63;;
21091;SDS011;10704;42.678;23.288;2023-04-12T01:56:58;19.75;;;11.88;;
21091;SDS011;10704;42.678;23.288;2023-04-12T01:59:47;20.25;;;11.20;;
21091;SDS011;10704;42.678;23.288;2023-04-12T02:02:13;20.33;;;11.80;;
21091;SDS011;10704;42.678;23.288;2023-04-12T02:04:40;19.13;;;11.48;;
21091;SDS011;10704;42.678;23.288;2023-04-12T02:07:07;18.27;;;11.32;;
21091;SDS011;10704;42.678;23.288;2023-04-12T02:09:37;19.27;;;11.82;;
21091;SDS011;10704;42.678;23.288;2023-04-12T02:12:04;19.63;;;12.02;;
21091;SDS011;10704;42.678;23.288;2023-04-12T02:14:30;20.52;;;12.40;;
21091;SDS011;10704;42.678;23.288;2023-04-12T02:16:56;19.73;;;12.90;;
21091;SDS011;10704;42.678;23.288;2023-04-12T02:19:22;18.83;;;12.18;;
21091;SDS011;10704;42.678;23.288;2023-04-12T02:21:50;20.45;;;12.15;;
21091;SDS011;10704;42.678;23.288;2023-04-12T02:24:16;20.20;;;12.73;;
21091;SDS011;10704;42.678;23.288;2023-04-12T02:26:43;18.73;;;11.88;;
21091;SDS011;10704;42.678;23.288;2023-04-12T02:29:09;19.92;;;11.57;;
21091;SDS011;10704;42.678;23.288;2023-04-12T02:31:36;24.38;;;12.52;;
21091;SDS011;10704;42.678;23.288;2023-04-12T02:34:05;18.35;;;11.27;;
21091;SDS011;10704;42.678;23.288;2023-04-12T02:36:32;19.13;;;12.20;;
21091;SDS011;10704;42.678;23.288;2023-04-12T02:38:59;20.52;;;11.77;;
21091;SDS011;10704;42.678;23.288;2023-04-12T02:41:25;20.95;;;12.13;;
21091;SDS011;10704;42.678;23.288;2023-04-12T02:43:52;21.15;;;12.63;;
21091;SDS011;10704;42.678;23.288;2023-04-12T02:46:18;21.05;;;12.27;;
21091;SDS011;10704;42.678;23.288;2023-04-12T02:48:50;22.20;;;12.70;;
21091;SDS011;10704;42.678;23.288;2023-04-12T02:51:17;19.05;;;11.95;;
21091;SDS011;10704;42.678;23.288;2023-04-12T02:53:47;20.27;;;11.85;;
21091;SDS011;10704;42.678;23.288;2023-04-12T02:56:16;20.75;;;12.70;;
21091;SDS011;10704;42.678;23.288;2023-04-12T02:58:46;19.70;;;13.02;;
21091;SDS011;10704;42.678;23.288;2023-04-12T03:01:19;22.60;;;11.90;;
21091;SDS011;10704;42.678;23.288;2023-04-12T03:04:08;19.73;;;12.55;;
21091;SDS011;10704;42.678;23.288;2023-04-12T03:06:42;21.45;;;12.40;;
21091;SDS011;10704;42.678;23.288;2023-04-12T03:09:19;19.23;;;12.73;;
21091;SDS011;10704;42.678;23.288;2023-04-12T03:11:45;19.55;;;12.25;;
21091;SDS011;10704;42.678;23.288;2023-04-12T03:14:12;20.98;;;12.68;;
21091;SDS011;10704;42.678;23.288;2023-04-12T03:16:39;22.58;;;13.73;;
21091;SDS011;10704;42.678;23.288;2023-04-12T03:19:10;26.27;;;13.63;;
21091;SDS011;10704;42.678;23.288;2023-04-12T03:21:38;24.38;;;14.25;;
21091;SDS011;10704;42.678;23.288;2023-04-12T03:24:05;26.73;;;15.23;;
21091;SDS011;10704;42.678;23.288;2023-04-12T03:26:32;28.38;;;16.60;;
21091;SDS011;10704;42.678;23.288;2023-04-12T03:29:09;26.73;;;16.13;;
21091;SDS011;10704;42.678;23.288;2023-04-12T03:31:36;26.05;;;16.00;;
21091;SDS011;10704;42.678;23.288;2023-04-12T03:34:06;29.00;;;15.93;;
21091;SDS011;10704;42.678;23.288;2023-04-12T03:36:34;29.45;;;17.13;;
21091;SDS011;10704;42.678;23.288;2023-04-12T03:39:15;27.40;;;15.85;;
21091;SDS011;10704;42.678;23.288;2023-04-12T03:41:42;29.58;;;15.23;;
21091;SDS011;10704;42.678;23.288;2023-04-12T03:44:08;28.75;;;15.43;;
21091;SDS011;10704;42.678;23.288;2023-04-12T03:46:34;26.27;;;15.90;;
21091;SDS011;10704;42.678;23.288;2023-04-12T03:49:05;25.65;;;16.10;;
21091;SDS011;10704;42.678;23.288;2023-04-12T03:51:32;26.63;;;15.77;;
21091;SDS011;10704;42.678;23.288;2023-04-12T03:54:01;26.85;;;15.85;;
21091;SDS011;10704;42.678;23.288;2023-04-12T03:56:30;27.58;;;15.57;;
21091;SDS011;10704;42.678;23.288;2023-04-12T03:58:59;25.45;;;15.65;;
21091;SDS011;10704;42.678;23.288;2023-04-12T04:01:25;24.60;;;15.93;;
21091;SDS011;10704;42.678;23.288;2023-04-12T04:03:52;25.00;;;14.98;;
21091;SDS011;10704;42.678;23.288;2023-04-12T04:06:22;23.83;;;14.38;;
21091;SDS011;10704;42.678;23.288;2023-04-12T04:08:51;29.33;;;16.55;;
21091;SDS011;10704;42.678;23.288;2023-04-12T04:11:17;25.98;;;15.55;;
21091;SDS011;10704;42.678;23.288;2023-04-12T04:13:48;26.92;;;16.65;;
21091;SDS011;10704;42.678;23.288;2023-04-12T04:16:18;26.73;;;15.48;;
21091;SDS011;10704;42.678;23.288;2023-04-12T04:18:44;25.35;;;15.00;;
21091;SDS011;10704;42.678;23.288;2023-04-12T04:21:12;25.88;;;15.90;;
21091;SDS011;10704;42.678;23.288;2023-04-12T04:23:39;24.50;;;15.70;;
21091;SDS011;10704;42.678;23.288;2023-04-12T04:26:09;25.80;;;15.23;;
21091;SDS011;10704;42.678;23.288;2023-04-12T04:29:02;27.45;;;16.08;;
21091;SDS011;10704;42.678;23.288;2023-04-12T04:31:34;29.25;;;15.70;;
21091;SDS011;10704;42.678;23.288;2023-04-12T04:34:04;27.52;;;15.52;;
21091;SDS011;10704;42.678;23.288;2023-04-12T04:36:32;24.98;;;15.45;;
21091;SDS011;10704;42.678;23.288;2023-04-12T04:39:00;22.67;;;15.32;;
21091;SDS011;10704;42.678;23.288;2023-04-12T04:41:36;23.83;;;14.65;;
21091;SDS011;10704;42.678;23.288;2023-04-12T04:44:10;25.85;;;15.38;;
21091;SDS011;10704;42.678;23.288;2023-04-12T04:46:46;22.42;;;14.20;;
21091;SDS011;10704;42.678;23.288;2023-04-12T04:49:13;26.17;;;15.15;;
21091;SDS011;10704;42.678;23.288;2023-04-12T04:51:39;23.73;;;14.98;;
21091;SDS011;10704;42.678;23.288;2023-04-12T04:54:06;21.60;;;13.18;;
21091;SDS011;10704;42.678;23.288;2023-04-12T04:56:33;21.02;;;13.70;;
21091;SDS011;10704;42.678;23.288;2023-04-12T04:58:59;22.30;;;13.32;;
21091;SDS011;10704;42.678;23.288;2023-04-12T05:01:27;22.50;;;12.85;;
21091;SDS011;10704;42.678;23.288;2023-04-12T05:03:54;24.33;;;14.18;;
21091;SDS011;10704;42.678;23.288;2023-04-12T05:06:21;21.33;;;11.75;;
21091;SDS011;10704;42.678;23.288;2023-04-12T05:08:47;21.48;;;11.90;;
21091;SDS011;10704;42.678;23.288;2023-04-12T05:11:16;23.17;;;12.40;;
21091;SDS011;10704;42.678;23.288;2023-04-12T05:13:42;17.15;;;11.18;;
21091;SDS011;10704;42.678;23.288;2023-04-12T05:16:09;17.52;;;10.25;;
21091;SDS011;10704;42.678;23.288;2023-04-12T05:18:35;19.48;;;10.88;;
21091;SDS011;10704;42.678;23.288;2023-04-12T05:21:04;18.35;;;10.02;;
21091;SDS011;10704;42.678;23.288;2023-04-12T05:23:34;14.20;;;8.70;;
21091;SDS011;10704;42.678;23.288;2023-04-12T05:26:04;17.17;;;9.18;;
21091;SDS011;10704;42.678;23.288;2023-04-12T05:28:30;15.60;;;9.20;;
21091;SDS011;10704;42.678;23.288;2023-04-12T05:30:56;14.07;;;8.55;;
21091;SDS011;10704;42.678;23.288;2023-04-12T05:33:30;14.73;;;8.77;;
21091;SDS011;10704;42.678;23.288;2023-04-12T05:35:59;14.88;;;8.30;;
21091;SDS011;10704;42.678;23.288;2023-04-12T05:38:26;17.42;;;7.68;;
21091;SDS011;10704;42.678;23.288;2023-04-12T05:40:56;13.90;;;7.53;;
21091;SDS011;10704;42.678;23.288;2023-04-12T05:43:22;13.55;;;7.30;;
21091;SDS011;10704;42.678;23.288;2023-04-12T05:45:49;14.27;;;7.20;;
21091;SDS011;10704;42.678;23.288;2023-04-12T05:48:18;16.80;;;8.27;;
21091;SDS011;10704;42.678;23.288;2023-04-12T05:50:51;14.10;;;6.88;;
21091;SDS011;10704;42.678;23.288;2023-04-12T05:53:19;11.77;;;6.40;;
21091;SDS011;10704;42.678;23.288;2023-04-12T05:55:45;12.68;;;7.20;;
21091;SDS011;10704;42.678;23.288;2023-04-12T05:58:12;13.98;;;7.35;;
21091;SDS011;10704;42.678;23.288;2023-04-12T06:00:39;14.00;;;6.63;;
21091;SDS011;10704;42.678;23.288;2023-04-12T06:03:07;11.00;;;5.82;;
21091;SDS011;10704;42.678;23.288;2023-04-12T06:05:34;11.55;;;5.65;;
21091;SDS011;10704;42.678;23.288;2023-04-12T06:08:01;10.82;;;5.47;;
21091;SDS011;10704;42.678;23.288;2023-04-12T06:10:28;13.43;;;6.30;;
21091;SDS011;10704;42.678;23.288;2023-04-12T06:12:54;12.35;;;6.18;;
21091;SDS011;10704;42.678;23.288;2023-04-12T06:15:20;14.52;;;5.90;;
21091;SDS011;10704;42.678;23.288;2023-04-12T06:17:51;11.40;;;6.50;;
21091;SDS011;10704;42.678;23.288;2023-04-12T06:20:17;12.65;;;6.22;;
21091;SDS011;10704;42.678;23.288;2023-04-12T06:22:43;11.80;;;6.40;;
21091;SDS011;10704;42.678;23.288;2023-04-12T06:25:13;12.50;;;6.65;;
21091;SDS011;10704;42.678;23.288;2023-04-12T06:27:42;13.82;;;7.03;;
21091;SDS011;10704;42.678;23.288;2023-04-12T06:30:08;8.23;;;5.22;;
21091;SDS011;10704;42.678;23.288;2023-04-12T06:32:35;11.55;;;5.93;;
21091;SDS011;10704;42.678;23.288;2023-04-12T06:35:03;13.60;;;5.63;;
21091;SDS011;10704;42.678;23.288;2023-04-12T06:37:31;10.45;;;5.28;;
21091;SDS011;10704;42.678;23.288;2023-04-12T06:39:56;13.45;;;5.72;;
21091;SDS011;10704;42.678;23.288;2023-04-12T06:42:23;11.90;;;5.30;;
21091;SDS011;10704;42.678;23.288;2023-04-12T06:44:50;9.25;;;5.18;;
21091;SDS011;10704;42.678;23.288;2023-04-12T06:47:16;12.15;;;5.78;;
21091;SDS011;10704;42.678;23.288;2023-04-12T06:49:41;10.23;;;4.70;;
21091;SDS011;10704;42.678;23.288;2023-04-12T06:52:07;9.43;;;4.65;;
21091;SDS011;10704;42.678;23.288;2023-04-12T06:54:38;9.75;;;5.28;;
21091;SDS011;10704;42.678;23.288;2023-04-12T06:57:07;8.25;;;5.18;;
21091;SDS011;10704;42.678;23.288;2023-04-12T06:59:35;9.32;;;4.60;;
21091;SDS011;10704;42.678;23.288;2023-04-12T07:02:01;11.90;;;6.38;;
21091;SDS011;10704;42.678;23.288;2023-04-12T07:04:26;8.77;;;5.03;;
21091;SDS011;10704;42.678;23.288;2023-04-12T07:06:52;14.20;;;6.18;;
21091;SDS011;10704;42.678;23.288;2023-04-12T07:09:18;6.90;;;4.45;;
21091;SDS011;10704;42.678;23.288;2023-04-12T07:11:44;6.90;;;4.70;;
21091;SDS011;10704;42.678;23.288;2023-04-12T07:14:10;14.27;;;5.32;;
21091;SDS011;10704;42.678;23.288;2023-04-12T07:16:36;9.43;;;5.15;;
21091;SDS011;10704;42.678;23.288;2023-04-12T07:19:02;9.38;;;4.75;;
21091;SDS011;10704;42.678;23.288;2023-04-12T07:21:28;9.43;;;5.18;;
21091;SDS011;10704;42.678;23.288;2023-04-12T07:23:54;8.75;;;5.40;;
21091;SDS011;10704;42.678;23.288;2023-04-12T07:26:20;12.30;;;5.43;;
21091;SDS011;10704;42.678;23.288;2023-04-12T07:28:46;12.32;;;6.47;;
21091;SDS011;10704;42.678;23.288;2023-04-12T07:31:12;9.55;;;5.72;;
21091;SDS011;10704;42.678;23.288;2023-04-12T07:33:38;7.57;;;5.10;;
21091;SDS011;10704;42.678;23.288;2023-04-12T07:36:04;10.20;;;6.22;;
21091;SDS011;10704;42.678;23.288;2023-04-12T07:38:30;6.75;;;4.78;;
21091;SDS011;10704;42.678;23.288;2023-04-12T07:40:57;9.07;;;5.18;;
21091;SDS011;10704;42.678;23.288;2023-04-12T07:43:22;7.47;;;5.10;;
21091;SDS011;10704;42.678;23.288;2023-04-12T07:45:49;8.05;;;4.65;;
21091;SDS011;10704;42.678;23.288;2023-04-12T07:48:16;9.40;;;4.88;;
21091;SDS011;10704;42.678;23.288;2023-04-12T07:50:42;8.57;;;4.70;;
21091;SDS011;10704;42.678;23.288;2023-04-12T07:53:21;9.40;;;4.82;;
21091;SDS011;10704;42.678;23.288;2023-04-12T07:55:48;9.55;;;5.25;;
21091;SDS011;10704;42.678;23.288;2023-04-12T07:58:15;7.28;;;3.45;;
21091;SDS011;10704;42.678;23.288;2023-04-12T08:00:42;8.93;;;3.92;;
21091;SDS011;10704;42.678;23.288;2023-04-12T08:03:13;7.68;;;2.78;;
21091;SDS011;10704;42.678;23.288;2023-04-12T08:05:40;5.30;;;2.70;;
21091;SDS011;10704;42.678;23.288;2023-04-12T08:08:06;8.57;;;3.88;;
21091;SDS011;10704;42.678;23.288;2023-04-12T08:10:38;9.02;;;2.97;;
21091;SDS011;10704;42.678;23.288;2023-04-12T08:13:05;6.72;;;3.00;;
21091;SDS011;10704;42.678;23.288;2023-04-12T08:15:31;4.97;;;3.03;;
21091;SDS011;10704;42.678;23.288;2023-04-12T08:17:57;6.03;;;3.08;;
21091;SDS011;10704;42.678;23.288;2023-04-12T08:20:23;7.65;;;2.75;;
21091;SDS011;10704;42.678;23.288;2023-04-12T08:22:49;9.98;;;2.63;;
21091;SDS011;10704;42.678;23.288;2023-04-12T08:25:16;7.53;;;2.92;;
21091;SDS011;10704;42.678;23.288;2023-04-12T08:27:42;5.03;;;2.22;;
21091;SDS011;10704;42.678;23.288;2023-04-12T08:30:10;7.07;;;2.53;;
21091;SDS011;10704;42.678;23.288;2023-04-12T08:32:37;5.22;;;2.60;;
21091;SDS011;10704;42.678;23.288;2023-04-12T08:35:03;5.05;;;2.25;;
21091;SDS011;10704;42.678;23.288;2023-04-12T08:37:30;8.07;;;2.10;;
21091;SDS011;10704;42.678;23.288;2023-04-12T08:39:57;6.68;;;2.42;;
21091;SDS011;10704;42.678;23.288;2023-04-12T08:42:25;12.25;;;2.85;;
21091;SDS011;10704;42.678;23.288;2023-04-12T08:44:51;8.18;;;2.42;;
21091;SDS011;10704;42.678;23.288;2023-04-12T08:47:18;4.53;;;2.03;;
21091;SDS011;10704;42.678;23.288;2023-04-12T08:49:45;7.15;;;2.20;;
21091;SDS011;10704;42.678;23.288;2023-04-12T08:52:11;3.20;;;1.75;;
21091;SDS011;10704;42.678;23.288;2023-04-12T08:54:37;6.32;;;2.38;;
21091;SDS011;10704;42.678;23.288;2023-04-12T08:57:04;4.28;;;2.20;;
21091;SDS011;10704;42.678;23.288;2023-04-12T08:59:31;3.75;;;2.00;;
21091;SDS011;10704;42.678;23.288;2023-04-12T09:02:01;3.38;;;1.85;;
21091;SDS011;10704;42.678;23.288;2023-04-12T09:04:27;4.32;;;2.03;;
21091;SDS011;10704;42.678;23.288;2023-04-12T09:06:54;7.30;;;1.80;;
21091;SDS011;10704;42.678;23.288;2023-04-12T09:12:06;5.65;;;2.25;;
21091;SDS011;10704;42.678;23.288;2023-04-12T09:14:32;4.18;;;1.52;;
21091;SDS011;10704;42.678;23.288;2023-04-12T09:16:58;3.60;;;2.03;;
21091;SDS011;10704;42.678;23.288;2023-04-12T09:19:31;6.68;;;1.83;;
21091;SDS011;10704;42.678;23.288;2023-04-12T09:21:58;4.25;;;1.80;;
21091;SDS011;10704;42.678;23.288;2023-04-12T09:24:24;8.25;;;2.72;;
21091;SDS011;10704;42.678;23.288;2023-04-12T09:27:00;5.25;;;1.83;;
21091;SDS011;10704;42.678;23.288;2023-04-12T09:29:27;7.85;;;3.20;;
21091;SDS011;10704;42.678;23.288;2023-04-12T09:31:54;6.00;;;2.15;;
21091;SDS011;10704;42.678;23.288;2023-04-12T09:34:21;5.82;;;1.73;;
21091;SDS011;10704;42.678;23.288;2023-04-12T09:36:47;5.15;;;1.80;;
21091;SDS011;10704;42.678;23.288;2023-04-12T09:39:13;3.10;;;1.42;;
21091;SDS011;10704;42.678;23.288;2023-04-12T09:41:39;6.25;;;2.00;;
21091;SDS011;10704;42.678;23.288;2023-04-12T09:44:05;7.15;;;1.75;;
21091;SDS011;10704;42.678;23.288;2023-04-12T09:46:31;3.72;;;1.30;;
21091;SDS011;10704;42.678;23.288;2023-04-12T09:48:58;7.15;;;1.92;;
21091;SDS011;10704;42.678;23.288;2023-04-12T09:51:25;5.03;;;2.50;;
21091;SDS011;10704;42.678;23.288;2023-04-12T09:53:57;6.07;;;2.22;;
21091;SDS011;10704;42.678;23.288;2023-04-12T09:56:29;6.05;;;3.35;;
21091;SDS011;10704;42.678;23.288;2023-04-12T09:59:00;5.13;;;1.85;;
21091;SDS011;10704;42.678;23.288;2023-04-12T10:01:28;6.50;;;1.73;;
21091;SDS011;10704;42.678;23.288;2023-04-12T10:04:05;3.97;;;1.80;;
21091;SDS011;10704;42.678;23.288;2023-04-12T10:06:35;5.63;;;1.90;;
21091;SDS011;10704;42.678;23.288;2023-04-12T10:09:05;5.78;;;1.48;;
21091;SDS011;10704;42.678;23.288;2023-04-12T10:11:32;11.18;;;2.65;;
21091;SDS011;10704;42.678;23.288;2023-04-12T10:14:00;10.68;;;3.58;;
21091;SDS011;10704;42.678;23.288;2023-04-12T10:16:27;10.63;;;2.40;;
21091;SDS011;10704;42.678;23.288;2023-04-12T10:18:54;7.43;;;1.95;;
21091;SDS011;10704;42.678;23.288;2023-04-12T10:21:20;3.72;;;1.63;;
21091;SDS011;10704;42.678;23.288;2023-04-12T10:23:46;6.50;;;2.08;;
21091;SDS011;10704;42.678;23.288;2023-04-12T10:26:14;3.78;;;1.58;;
21091;SDS011;10704;42.678;23.288;2023-04-12T10:28:42;8.05;;;1.67;;
21091;SDS011;10704;42.678;23.288;2023-04-12T10:31:29;5.30;;;1.38;;
21091;SDS011;10704;42.678;23.288;2023-04-12T10:33:56;4.43;;;1.60;;
21091;SDS011;10704;42.678;23.288;2023-04-12T10:39:17;9.50;;;2.15;;
21091;SDS011;10704;42.678;23.288;2023-04-12T10:42:15;4.63;;;1.30;;
21091;SDS011;10704;42.678;23.288;2023-04-12T10:44:42;3.47;;;0.90;;
21091;SDS011;10704;42.678;23.288;2023-04-12T10:47:08;3.13;;;0.98;;
21091;SDS011;10704;42.678;23.288;2023-04-12T10:49:35;3.38;;;1.40;;
21091;SDS011;10704;42.678;23.288;2023-04-12T10:54:35;2.97;;;1.50;;
21091;SDS011;10704;42.678;23.288;2023-04-12T10:57:01;2.40;;;1.35;;
21091;SDS011;10704;42.678;23.288;2023-04-12T10:59:55;2.78;;;1.00;;
21091;SDS011;10704;42.678;23.288;2023-04-12T11:02:23;4.18;;;0.98;;
21091;SDS011;10704;42.678;23.288;2023-04-12T11:05:07;4.22;;;1.30;;
21091;SDS011;10704;42.678;23.288;2023-04-12T11:08:07;7.43;;;1.30;;
21091;SDS011;10704;42.678;23.288;2023-04-12T11:11:00;4.72;;;1.95;;
21091;SDS011;10704;42.678;23.288;2023-04-12T11:13:37;5.80;;;1.60;;
21091;SDS011;10704;42.678;23.288;2023-04-12T11:16:04;5.28;;;1.65;;
21091;SDS011;10704;42.678;23.288;2023-04-12T11:18:33;3.53;;;0.85;;
21091;SDS011;10704;42.678;23.288;2023-04-12T11:21:01;4.68;;;1.30;;
21091;SDS011;10704;42.678;23.288;2023-04-12T11:23:29;7.05;;;2.42;;
21091;SDS011;10704;42.678;23.288;2023-04-12T11:25:56;4.47;;;1.60;;
21091;SDS011;10704;42.678;23.288;2023-04-12T11:28:22;5.90;;;1.30;;
21091;SDS011;10704;42.678;23.288;2023-04-12T11:30:53;2.22;;;0.98;;
21091;SDS011;10704;42.678;23.288;2023-04-12T11:33:33;4.90;;;1.52;;
21091;SDS011;10704;42.678;23.288;2023-04-12T11:36:06;4.40;;;1.52;;
21091;SDS011;10704;42.678;23.288;2023-04-12T11:38:34;3.30;;;1.08;;
21091;SDS011;10704;42.678;23.288;2023-04-12T11:41:02;7.85;;;1.50;;
21091;SDS011;10704;42.678;23.288;2023-04-12T11:43:30;7.00;;;1.33;;
21091;SDS011;10704;42.678;23.288;2023-04-12T11:45:57;6.18;;;1.20;;
21091;SDS011;10704;42.678;23.288;2023-04-12T11:48:26;5.55;;;1.60;;
21091;SDS011;10704;42.678;23.288;2023-04-12T11:50:53;5.38;;;1.35;;
21091;SDS011;10704;42.678;23.288;2023-04-12T11:53:19;2.72;;;0.90;;
21091;SDS011;10704;42.678;23.288;2023-04-12T11:55:48;4.47;;;0.93;;
21091;SDS011;10704;42.678;23.288;2023-04-12T11:58:15;4.10;;;1.65;;
21091;SDS011;10704;42.678;23.288;2023-04-12T12:00:44;2.90;;;1.10;;
21091;SDS011;10704;42.678;23.288;2023-04-12T12:03:10;3.47;;;1.30;;
21091;SDS011;10704;42.678;23.288;2023-04-12T12:05:37;4.03;;;0.85;;
21091;SDS011;10704;42.678;23.288;2023-04-12T12:08:06;5.03;;;1.10;;
21091;SDS011;10704;42.678;23.288;2023-04-12T12:10:34;3.65;;;1.08;;
21091;SDS011;10704;42.678;23.288;2023-04-12T12:13:00;7.13;;;1.17;;
21091;SDS011;10704;42.678;23.288;2023-04-12T12:15:29;3.63;;;1.00;;
21091;SDS011;10704;42.678;23.288;2023-04-12T12:17:55;3.15;;;1.25;;
21091;SDS011;10704;42.678;23.288;2023-04-12T12:20:22;4.60;;;1.08;;
21091;SDS011;10704;42.678;23.288;2023-04-12T12:22:48;4.15;;;1.40;;
21091;SDS011;10704;42.678;23.288;2023-04-12T12:25:18;3.17;;;0.95;;
21091;SDS011;10704;42.678;23.288;2023-04-12T12:27:44;2.38;;;1.08;;
21091;SDS011;10704;42.678;23.288;2023-04-12T12:30:17;2.33;;;1.25;;
21091;SDS011;10704;42.678;23.288;2023-04-12T12:32:48;3.75;;;0.90;;
21091;SDS011;10704;42.678;23.288;2023-04-12T12:35:14;4.00;;;1.00;;
21091;SDS011;10704;42.678;23.288;2023-04-12T12:37:47;8.40;;;1.33;;
21091;SDS011;10704;42.678;23.288;2023-04-12T12:40:17;3.33;;;1.13;;
21091;SDS011;10704;42.678;23.288;2023-04-12T12:42:52;4.07;;;1.05;;
21091;SDS011;10704;42.678;23.288;2023-04-12T12:45:21;3.58;;;1.20;;
21091;SDS011;10704;42.678;23.288;2023-04-12T12:47:52;4.65;;;1.67;;
21091;SDS011;10704;42.678;23.288;2023-04-12T12:50:20;5.10;;;1.15;;
21091;SDS011;10704;42.678;23.288;2023-04-12T12:52:47;6.60;;;0.98;;
21091;SDS011;10704;42.678;23.288;2023-04-12T12:55:14;2.83;;;1.02;;
21091;SDS011;10704;42.678;23.288;2023-04-12T12:57:41;4.68;;;1.10;;
21091;SDS011;10704;42.678;23.288;2023-04-12T13:00:09;7.03;;;1.27;;
21091;SDS011;10704;42.678;23.288;2023-04-12T13:02:38;6.90;;;2.13;;
21091;SDS011;10704;42.678;23.288;2023-04-12T13:05:04;7.75;;;2.03;;
21091;SDS011;10704;42.678;23.288;2023-04-12T13:07:30;4.15;;;1.40;;
21091;SDS011;10704;42.678;23.288;2023-04-12T13:09:57;7.45;;;1.88;;
21091;SDS011;10704;42.678;23.288;2023-04-12T13:12:23;2.92;;;0.93;;
21091;SDS011;10704;42.678;23.288;2023-04-12T13:14:49;3.78;;;1.58;;
21091;SDS011;10704;42.678;23.288;2023-04-12T13:17:15;4.70;;;1.20;;
21091;SDS011;10704;42.678;23.288;2023-04-12T13:19:41;5.30;;;1.77;;
21091;SDS011;10704;42.678;23.288;2023-04-12T13:22:08;6.90;;;1.38;;
21091;SDS011;10704;42.678;23.288;2023-04-12T13:24:34;2.72;;;1.25;;
21091;SDS011;10704;42.678;23.288;2023-04-12T13:27:00;3.90;;;1.00;;
21091;SDS011;10704;42.678;23.288;2023-04-12T13:29:27;4.80;;;1.40;;
21091;SDS011;10704;42.678;23.288;2023-04-12T13:31:53;3.45;;;1.13;;
21091;SDS011;10704;42.678;23.288;2023-04-12T13:34:19;4.35;;;1.10;;
21091;SDS011;10704;42.678;23.288;2023-04-12T13:36:46;2.85;;;1.10;;
21091;SDS011;10704;42.678;23.288;2023-04-12T13:39:13;5.03;;;1.33;;
21091;SDS011;10704;42.678;23.288;2023-04-12T13:41:38;2.35;;;1.10;;
21091;SDS011;10704;42.678;23.288;2023-04-12T13:44:05;2.45;;;1.27;;
21091;SDS011;10704;42.678;23.288;2023-04-12T13:46:31;4.13;;;1.40;;
21091;SDS011;10704;42.678;23.288;2023-04-12T13:48:57;5.25;;;1.80;;
21091;SDS011;10704;42.678;23.288;2023-04-12T13:51:22;5.35;;;1.55;;
21091;SDS011;10704;42.678;23.288;2023-04-12T13:53:50;4.30;;;1.50;;
21091;SDS011;10704;42.678;23.288;2023-04-12T13:56:16;2.70;;;1.23;;
21091;SDS011;10704;42.678;23.288;2023-04-12T13:58:42;4.82;;;1.83;;
21091;SDS011;10704;42.678;23.288;2023-04-12T14:01:08;5.50;;;1.55;;
21091;SDS011;10704;42.678;23.288;2023-04-12T14:03:34;4.63;;;2.35;;
21091;SDS011;10704;42.678;23.288;2023-04-12T14:06:00;4.05;;;1.50;;
21091;SDS011;10704;42.678;23.288;2023-04-12T14:08:27;3.40;;;1.30;;
21091;SDS011;10704;42.678;23.288;2023-04-12T14:10:53;4.13;;;1.25;;
21091;SDS011;10704;42.678;23.288;2023-04-12T14:13:23;6.82;;;1.17;;
21091;SDS011;10704;42.678;23.288;2023-04-12T14:15:50;6.20;;;1.48;;
21091;SDS011;10704;42.678;23.288;2023-04-12T14:18:16;2.03;;;1.08;;
21091;SDS011;10704;42.678;23.288;2023-04-12T14:20:43;1.45;;;0.80;;
21091;SDS011;10704;42.678;23.288;2023-04-12T14:23:12;3.33;;;0.80;;
21091;SDS011;10704;42.678;23.288;2023-04-12T14:25:38;2.17;;;1.02;;
21091;SDS011;10704;42.678;23.288;2023-04-12T14:28:05;3.50;;;1.00;;
21091;SDS011;10704;42.678;23.288;2023-04-12T14:30:31;2.30;;;1.00;;
21091;SDS011;10704;42.678;23.288;2023-04-12T14:32:57;2.78;;;1.33;;
21091;SDS011;10704;42.678;23.288;2023-04-12T14:35:23;3.03;;;1.27;;
21091;SDS011;10704;42.678;23.288;2023-04-12T14:37:49;3.30;;;1.02;;
21091;SDS011;10704;42.678;23.288;2023-04-12T14:40:15;3.08;;;1.00;;
21091;SDS011;10704;42.678;23.288;2023-04-12T14:42:42;4.47;;;1.27;;